createdAt,value
2018-03-15T00:02:02.850Z,5.43
2018-03-15T00:04:06.780Z,5.67
2018-03-15T00:06:10.701Z,5.63
2018-03-15T00:08:14.596Z,6.00
2018-03-15T00:10:18.036Z,6.03
2018-03-15T00:12:21.932Z,5.60
2018-03-15T00:14:25.070Z,5.27
2018-03-15T00:16:29.005Z,5.30
2018-03-15T00:18:32.132Z,6.00
2018-03-15T00:20:35.269Z,5.37
2018-03-15T00:22:38.738Z,5.50
2018-03-15T00:24:41.888Z,5.23
2018-03-15T00:26:45.040Z,5.77
2018-03-15T00:28:48.970Z,5.30
2018-03-15T00:30:52.887Z,5.37
2018-03-15T00:32:57.952Z,6.30
2018-03-15T00:35:01.122Z,5.73
2018-03-15T00:37:04.294Z,5.43
2018-03-15T00:39:07.432Z,5.97
2018-03-15T00:41:10.588Z,5.93
2018-03-15T00:43:13.720Z,6.13
2018-03-15T00:45:17.977Z,6.03
2018-03-15T00:47:21.147Z,6.20
2018-03-15T00:49:24.313Z,5.40
2018-03-15T00:51:27.477Z,5.50
2018-03-15T00:53:30.693Z,6.70
2018-03-15T00:55:33.836Z,5.43
2018-03-15T00:57:38.292Z,6.70
2018-03-15T00:59:42.199Z,6.23
2018-03-15T01:01:45.344Z,6.05
2018-03-15T01:03:48.504Z,6.32
2018-03-15T01:05:51.704Z,6.47
2018-03-15T01:07:54.841Z,6.43
2018-03-15T01:09:58.788Z,6.07
2018-03-15T01:12:01.928Z,6.50
2018-03-15T01:14:05.290Z,6.03
2018-03-15T01:16:09.196Z,6.60
2018-03-15T01:18:13.110Z,6.33
2018-03-15T01:20:16.268Z,6.67
2018-03-15T01:22:19.432Z,6.67
2018-03-15T01:24:22.597Z,7.90
2018-03-15T01:26:25.737Z,7.40
2018-03-15T01:28:29.667Z,6.00
2018-03-15T01:30:32.852Z,6.82
2018-03-15T01:32:36.004Z,7.23
2018-03-15T01:34:39.540Z,6.85
2018-03-15T01:36:42.708Z,7.33
2018-03-15T01:38:45.917Z,7.13
2018-03-15T01:40:49.074Z,6.43
2018-03-15T01:42:52.237Z,6.37
2018-03-15T01:44:56.163Z,6.60
2018-03-15T01:46:59.872Z,6.95
2018-03-15T01:49:03.012Z,7.53
2018-03-15T01:51:06.954Z,6.80
2018-03-15T01:53:10.128Z,7.05
2018-03-15T01:55:14.077Z,7.23
2018-03-15T01:57:17.261Z,6.67
2018-03-15T01:59:20.445Z,6.77
2018-03-15T02:01:23.581Z,7.97
2018-03-15T02:03:27.484Z,6.50
2018-03-15T02:05:30.648Z,7.50
2018-03-15T02:07:33.793Z,7.50
2018-03-15T02:09:36.946Z,6.43
2018-03-15T02:11:40.594Z,7.07
2018-03-15T02:13:43.769Z,7.17
2018-03-15T02:15:47.673Z,7.63
2018-03-15T02:17:50.809Z,7.45
2018-03-15T02:19:54.102Z,6.90
2018-03-15T02:21:58.053Z,6.37
2018-03-15T02:24:01.187Z,7.23
2018-03-15T02:26:04.356Z,7.37
2018-03-15T02:28:07.504Z,7.03
2018-03-15T02:30:10.689Z,7.07
2018-03-15T02:32:13.839Z,6.90
2018-03-15T02:34:18.489Z,7.10
2018-03-15T02:36:21.657Z,7.03
2018-03-15T02:38:24.826Z,7.70
2018-03-15T02:40:28.742Z,7.77
2018-03-15T02:42:32.684Z,7.23
2018-03-15T02:44:36.293Z,7.67
2018-03-15T02:46:40.205Z,7.57
2018-03-15T02:48:43.374Z,7.30
2018-03-15T02:50:46.519Z,7.47
2018-03-15T02:52:50.466Z,7.57
2018-03-15T02:54:54.360Z,7.17
2018-03-15T02:56:57.536Z,6.77
2018-03-15T02:59:01.848Z,7.37
2018-03-15T03:01:05.017Z,7.00
2018-03-15T03:03:08.973Z,6.80
2018-03-15T03:05:12.164Z,6.43
2018-03-15T03:07:15.301Z,6.87
2018-03-15T03:09:18.441Z,6.83
2018-03-15T03:11:23.214Z,6.82
2018-03-15T03:13:26.354Z,6.67
2018-03-15T03:15:29.521Z,7.70
2018-03-15T03:17:32.664Z,7.23
2018-03-15T03:19:35.797Z,7.07
2018-03-15T03:21:39.002Z,7.33
2018-03-15T03:23:42.809Z,6.43
2018-03-15T03:25:45.960Z,8.60
2018-03-15T03:27:49.125Z,8.13
2018-03-15T03:29:52.265Z,8.80
2018-03-15T03:31:55.416Z,8.53
2018-03-15T03:33:59.344Z,7.50
2018-03-15T03:36:03.075Z,8.10
2018-03-15T03:38:06.261Z,6.90
2018-03-15T03:40:10.181Z,9.43
2018-03-15T03:42:13.357Z,8.13
2018-03-15T03:44:16.524Z,7.07
2018-03-15T03:46:19.669Z,9.03
2018-03-15T03:48:23.451Z,9.52
2018-03-15T03:50:26.621Z,7.37
2018-03-15T03:52:31.265Z,7.13
2018-03-15T03:54:35.948Z,8.32
2018-03-15T03:56:39.124Z,8.20
2018-03-15T03:58:42.264Z,8.47
2018-03-15T04:00:45.451Z,7.07
2018-03-15T04:02:49.357Z,7.53
2018-03-15T04:04:52.500Z,8.83
2018-03-15T04:06:55.665Z,6.50
2018-03-15T04:08:58.833Z,7.40
2018-03-15T04:11:01.972Z,7.53
2018-03-15T04:13:05.145Z,6.40
2018-03-15T04:15:08.317Z,7.45
2018-03-15T04:17:12.233Z,10.00
2018-03-15T04:19:16.136Z,7.13
2018-03-15T04:21:19.298Z,7.25
2018-03-15T04:23:22.491Z,6.90
2018-03-15T04:25:26.560Z,7.73
2018-03-15T04:27:29.706Z,7.77
2018-03-15T04:29:32.845Z,7.13
2018-03-15T04:31:36.025Z,6.67
2018-03-15T04:33:40.162Z,8.07
2018-03-15T04:35:45.176Z,7.13
2018-03-15T04:37:48.320Z,7.10
2018-03-15T04:39:52.245Z,6.47
2018-03-15T04:41:56.199Z,6.90
2018-03-15T04:43:59.368Z,6.73
2018-03-15T04:46:02.505Z,6.70
2018-03-15T04:48:06.493Z,6.77
2018-03-15T04:50:09.665Z,6.40
2018-03-15T04:52:12.804Z,6.90
2018-03-15T04:54:16.975Z,6.60
2018-03-15T04:56:20.114Z,7.03
2018-03-15T04:58:23.256Z,7.23
2018-03-15T05:00:26.429Z,8.52
2018-03-15T05:02:29.600Z,7.27
2018-03-15T05:04:34.234Z,8.00
2018-03-15T05:06:37.653Z,7.00
2018-03-15T05:08:42.663Z,7.00
2018-03-15T05:10:46.700Z,7.67
2018-03-15T05:12:51.008Z,6.68
2018-03-15T05:14:55.293Z,6.95
2018-03-15T05:16:59.636Z,6.43
2018-03-15T05:19:03.868Z,6.80
2018-03-15T05:21:08.265Z,6.97
2018-03-15T05:23:13.427Z,6.80
2018-03-15T05:25:18.807Z,6.70
2018-03-15T05:27:22.693Z,7.03
2018-03-15T05:29:27.465Z,6.87
2018-03-15T05:31:31.749Z,6.30
2018-03-15T05:33:36.094Z,6.50
2018-03-15T05:35:40.453Z,7.80
2018-03-15T05:37:45.271Z,6.20
2018-03-15T05:39:50.103Z,5.82
2018-03-15T05:41:54.959Z,6.33
2018-03-15T05:44:00.824Z,6.00
2018-03-15T05:46:06.409Z,5.57
2018-03-15T05:48:12.644Z,6.17
2018-03-15T05:50:18.129Z,5.70
2018-03-15T05:52:23.165Z,6.03
2018-03-15T05:54:27.954Z,6.40
2018-03-15T05:56:33.157Z,6.00
2018-03-15T05:58:38.236Z,6.10
2018-03-15T06:00:42.387Z,5.77
2018-03-15T06:02:47.385Z,6.20
2018-03-15T06:04:52.017Z,6.20
2018-03-15T06:06:55.188Z,6.00
2018-03-15T06:08:58.325Z,6.70
2018-03-15T06:11:03.956Z,7.07
2018-03-15T06:13:09.675Z,6.55
2018-03-15T06:15:13.688Z,6.03
2018-03-15T06:17:18.543Z,5.67
2018-03-15T06:19:22.052Z,6.60
2018-03-15T06:21:25.188Z,6.03
2018-03-15T06:23:30.217Z,5.93
2018-03-15T06:25:35.045Z,6.68
2018-03-15T06:27:39.493Z,8.10
2018-03-15T06:29:42.628Z,8.30
2018-03-15T06:31:45.817Z,6.97
2018-03-15T06:33:51.909Z,6.37
2018-03-15T06:35:56.742Z,6.27
2018-03-15T06:38:00.753Z,5.27
2018-03-15T06:40:05.466Z,6.10
2018-03-15T06:42:10.384Z,6.20
2018-03-15T06:44:16.564Z,5.63
2018-03-15T06:46:19.732Z,7.43
2018-03-15T06:48:22.907Z,7.90
2018-03-15T06:50:26.288Z,7.00
2018-03-15T06:52:31.812Z,6.35
2018-03-15T06:54:34.954Z,5.63
2018-03-15T06:56:38.093Z,5.67
2018-03-15T06:58:42.026Z,5.77
2018-03-15T07:00:45.201Z,5.30
2018-03-15T07:02:49.037Z,5.47
2018-03-15T07:04:53.486Z,5.20
2018-03-15T07:06:59.086Z,5.77
2018-03-15T07:09:04.171Z,6.97
2018-03-15T07:11:07.440Z,6.33
2018-03-15T07:13:10.878Z,5.95
2018-03-15T07:15:14.019Z,6.90
2018-03-15T07:17:17.372Z,6.03
2018-03-15T07:19:21.283Z,5.87
2018-03-15T07:21:25.234Z,5.53
2018-03-15T07:23:28.376Z,5.70
2018-03-15T07:25:31.561Z,6.70
2018-03-15T07:27:38.409Z,6.67
2018-03-15T07:29:41.578Z,7.13
2018-03-15T07:31:44.750Z,5.70
2018-03-15T07:33:47.916Z,7.63
2018-03-15T07:35:51.605Z,7.53
2018-03-15T07:37:55.451Z,7.23
2018-03-15T07:40:00.140Z,6.53
2018-03-15T07:42:04.682Z,6.30
2018-03-15T07:44:07.861Z,7.20
2018-03-15T07:46:11.945Z,6.65
2018-03-15T07:48:15.083Z,6.83
2018-03-15T07:50:18.222Z,6.67
2018-03-15T07:52:22.173Z,6.20
2018-03-15T07:54:25.304Z,7.10
2018-03-15T07:56:28.448Z,6.30
2018-03-15T07:58:31.773Z,6.40
2018-03-15T08:00:34.929Z,6.27
2018-03-15T08:02:38.398Z,7.17
2018-03-15T08:04:42.310Z,7.20
2018-03-15T08:06:46.245Z,6.25
2018-03-15T08:08:50.154Z,7.40
2018-03-15T08:10:53.320Z,7.03
2018-03-15T08:12:56.485Z,5.60
2018-03-15T08:15:00.422Z,5.57
2018-03-15T08:17:03.593Z,5.85
2018-03-15T08:19:06.740Z,6.12
2018-03-15T08:21:09.911Z,6.20
2018-03-15T08:23:13.050Z,6.55
2018-03-15T08:25:16.242Z,6.20
2018-03-15T08:27:20.148Z,5.78
2018-03-15T08:29:23.293Z,6.50
2018-03-15T08:31:26.469Z,5.75
2018-03-15T08:33:29.648Z,6.00
2018-03-15T08:35:32.860Z,5.80
2018-03-15T08:37:36.016Z,5.27
2018-03-15T08:39:39.952Z,5.33
2018-03-15T08:41:43.128Z,5.20
2018-03-15T08:43:46.276Z,5.07
2018-03-15T08:45:50.232Z,5.03
2018-03-15T08:47:53.372Z,4.97
2018-03-15T08:49:56.521Z,5.00
2018-03-15T08:51:59.701Z,5.00
2018-03-15T08:54:03.612Z,4.80
2018-03-15T08:56:06.879Z,5.17
2018-03-15T08:58:10.017Z,5.07
2018-03-15T09:00:13.259Z,4.70
2018-03-15T09:02:16.466Z,4.70
2018-03-15T09:04:20.389Z,4.57
2018-03-15T09:06:24.406Z,4.47
2018-03-15T09:08:27.499Z,4.50
2018-03-15T09:10:30.672Z,4.30
2018-03-15T09:12:33.865Z,4.30
2018-03-15T09:14:37.112Z,4.43
2018-03-15T09:16:40.300Z,3.90
2018-03-15T09:18:43.504Z,3.70
2018-03-15T09:20:46.650Z,4.18
2018-03-15T09:25:08.007Z,3.90
2018-03-15T09:27:11.207Z,4.07
2018-03-15T09:29:14.365Z,4.15
2018-03-15T09:31:17.520Z,4.30
2018-03-15T09:33:20.990Z,3.60
2018-03-15T09:35:24.148Z,3.73
2018-03-15T09:37:28.085Z,4.00
2018-03-15T09:39:32.050Z,3.70
2018-03-15T09:41:35.250Z,3.55
2018-03-15T09:43:38.410Z,3.50
2018-03-15T09:45:41.587Z,3.70
2018-03-15T09:47:44.783Z,3.43
2018-03-15T09:49:48.179Z,3.40
2018-03-15T09:51:51.340Z,4.40
2018-03-15T09:53:54.504Z,3.00
2018-03-15T09:55:57.697Z,3.40
2018-03-15T09:58:01.380Z,3.28
2018-03-15T10:00:05.103Z,3.87
2018-03-15T10:02:09.902Z,4.20
2018-03-15T10:04:16.112Z,3.83
2018-03-15T10:06:19.537Z,3.63
2018-03-15T10:08:22.705Z,3.53
2018-03-15T10:10:26.231Z,3.33
2018-03-15T10:12:29.433Z,3.20
2018-03-15T10:14:32.594Z,3.17
2018-03-15T10:16:36.529Z,3.10
2018-03-15T10:18:39.727Z,3.25
2018-03-15T10:20:43.836Z,3.12
2018-03-15T10:22:47.021Z,3.17
2018-03-15T10:24:50.218Z,2.90
2018-03-15T10:26:53.724Z,3.43
2018-03-15T10:28:56.893Z,2.95
2018-03-15T10:31:00.104Z,3.40
2018-03-15T10:33:08.753Z,2.40
2018-03-15T10:35:17.563Z,2.85
2018-03-15T10:37:22.610Z,3.20
2018-03-15T10:39:25.804Z,3.20
2018-03-15T10:41:29.005Z,3.10
2018-03-15T10:43:32.172Z,2.83
2018-03-15T10:45:35.333Z,3.85
2018-03-15T10:47:38.524Z,3.13
2018-03-15T10:49:42.842Z,3.00
2018-03-15T10:51:46.037Z,3.87
2018-03-15T10:53:49.209Z,2.78
2018-03-15T10:55:53.179Z,3.30
2018-03-15T10:57:56.342Z,2.73
2018-03-15T10:59:59.543Z,2.67
2018-03-15T11:02:06.180Z,2.70
2018-03-15T11:04:11.152Z,3.10
2018-03-15T11:06:14.545Z,2.80
2018-03-15T11:08:23.233Z,2.55
2018-03-15T11:10:26.553Z,4.20
2018-03-15T11:12:30.534Z,2.80
2018-03-15T11:14:34.064Z,2.73
2018-03-15T11:16:37.276Z,3.10
2018-03-15T11:18:40.496Z,2.97
2018-03-15T11:20:43.657Z,2.40
2018-03-15T11:22:46.825Z,2.37
2018-03-15T11:24:50.789Z,2.42
2018-03-15T11:26:53.952Z,2.47
2018-03-15T11:28:57.897Z,1.77
2018-03-15T11:31:02.869Z,2.20
2018-03-15T11:33:06.294Z,2.10
2018-03-15T11:35:09.597Z,2.10
2018-03-15T11:37:12.989Z,1.83
2018-03-15T11:39:16.905Z,1.83
2018-03-15T11:41:20.838Z,2.25
2018-03-15T11:43:24.036Z,2.00
2018-03-15T11:45:27.965Z,2.10
2018-03-15T11:47:31.894Z,1.90
2018-03-15T11:49:35.848Z,1.90
2018-03-15T11:51:39.016Z,2.08
2018-03-15T11:53:42.976Z,2.17
2018-03-15T11:55:47.685Z,2.10
2018-03-15T11:57:51.650Z,2.17
2018-03-15T11:59:54.874Z,1.90
2018-03-15T12:01:58.067Z,2.00
2018-03-15T12:04:01.224Z,1.97
2018-03-15T12:08:19.380Z,2.40
2018-03-15T12:10:24.634Z,2.53
2018-03-15T12:12:28.336Z,2.10
2018-03-15T12:14:31.540Z,2.12
2018-03-15T12:16:34.716Z,2.10
2018-03-15T12:18:37.861Z,1.90
2018-03-15T12:20:41.038Z,2.10
2018-03-15T12:22:45.733Z,1.80
2018-03-15T12:24:49.704Z,2.30
2018-03-15T12:26:52.897Z,2.22
2018-03-15T12:28:56.074Z,2.80
2018-03-15T12:30:59.227Z,2.53
2018-03-15T12:33:02.392Z,3.17
2018-03-15T12:35:05.569Z,3.47
2018-03-15T12:37:09.537Z,3.13
2018-03-15T12:39:12.681Z,3.23
2018-03-15T12:41:15.856Z,3.43
2018-03-15T12:43:19.028Z,2.97
2018-03-15T12:45:22.180Z,2.95
2018-03-15T12:47:25.331Z,3.42
2018-03-15T12:49:29.368Z,5.93
2018-03-15T12:51:33.449Z,3.03
2018-03-15T12:53:36.600Z,3.47
2018-03-15T12:55:40.521Z,2.83
2018-03-15T12:57:44.547Z,2.80
2018-03-15T12:59:47.716Z,2.50
2018-03-15T13:01:50.926Z,2.50
2018-03-15T13:03:54.067Z,2.57
2018-03-15T13:05:58.000Z,2.80
2018-03-15T13:08:01.961Z,6.93
2018-03-15T13:10:05.106Z,3.40
2018-03-15T13:12:08.257Z,2.75
2018-03-15T13:14:12.570Z,3.27
2018-03-15T13:16:17.930Z,2.93
2018-03-15T13:18:21.132Z,2.83
2018-03-15T13:20:25.044Z,2.90
2018-03-15T13:22:28.220Z,2.67
2018-03-15T13:24:31.378Z,3.20
2018-03-15T13:26:35.718Z,3.00
2018-03-15T13:28:38.945Z,2.47
2018-03-15T13:30:42.168Z,2.63
2018-03-15T13:32:45.365Z,2.77
2018-03-15T13:34:48.514Z,2.85
2018-03-15T13:36:51.664Z,2.87
2018-03-15T13:38:55.608Z,3.20
2018-03-15T13:40:58.791Z,3.73
2018-03-15T13:43:02.709Z,5.68
2018-03-15T13:45:06.652Z,3.20
2018-03-15T13:47:09.828Z,2.85
2018-03-15T13:49:13.001Z,3.92
2018-03-15T13:51:16.156Z,2.60
2018-03-15T13:53:20.065Z,3.13
2018-03-15T13:55:23.519Z,2.87
2018-03-15T13:57:26.673Z,3.33
2018-03-15T13:59:29.825Z,2.77
2018-03-15T14:01:33.765Z,2.57
2018-03-15T14:03:37.312Z,2.50
2018-03-15T14:05:42.328Z,2.73
2018-03-15T14:07:46.556Z,2.50
2018-03-15T14:09:51.944Z,2.55
2018-03-15T14:11:57.417Z,2.60
2018-03-15T14:14:00.777Z,2.70
2018-03-15T14:16:04.017Z,2.70
2018-03-15T14:18:07.373Z,2.80
2018-03-15T14:20:10.525Z,2.30
2018-03-15T14:22:14.149Z,2.90
2018-03-15T14:24:17.304Z,2.47
2018-03-15T14:26:20.505Z,2.20
2018-03-15T14:28:25.235Z,2.70
2018-03-15T14:30:28.660Z,2.60
2018-03-15T14:32:33.641Z,2.67
2018-03-15T14:34:37.305Z,2.87
2018-03-15T14:38:57.147Z,2.33
2018-03-15T14:41:00.435Z,2.20
2018-03-15T14:43:03.648Z,9.40
2018-03-15T14:45:06.958Z,6.27
2018-03-15T14:47:10.109Z,3.50
2018-03-15T14:49:14.187Z,2.83
2018-03-15T14:51:17.421Z,3.40
2018-03-15T14:53:20.733Z,3.27
2018-03-15T14:55:25.609Z,2.53
2018-03-15T14:57:28.900Z,2.60
2018-03-15T14:59:32.470Z,2.40
2018-03-15T15:01:35.646Z,2.30
2018-03-15T15:03:40.927Z,2.30
2018-03-15T15:05:44.093Z,2.23
2018-03-15T15:07:47.652Z,2.40
2018-03-15T15:09:50.928Z,4.60
2018-03-15T15:11:54.970Z,2.92
2018-03-15T15:13:58.261Z,2.90
2018-03-15T15:16:01.462Z,3.40
2018-03-15T15:18:04.607Z,4.83
2018-03-15T15:20:07.765Z,6.28
2018-03-15T15:22:11.120Z,3.87
2018-03-15T15:24:14.278Z,2.58
2018-03-15T15:26:17.423Z,2.50
2018-03-15T15:28:22.499Z,10.97
2018-03-15T15:30:25.788Z,4.77
2018-03-15T15:32:28.998Z,3.05
2018-03-15T15:34:32.926Z,3.50
2018-03-15T15:36:36.898Z,2.70
2018-03-15T15:38:40.074Z,2.80
2018-03-15T15:40:43.915Z,2.50
2018-03-15T15:42:49.377Z,2.57
2018-03-15T15:44:53.645Z,2.53
2018-03-15T15:46:58.297Z,4.40
2018-03-15T15:49:02.848Z,3.37
2018-03-15T15:51:07.980Z,3.00
2018-03-15T15:53:11.197Z,2.67
2018-03-15T15:55:14.667Z,2.37
2018-03-15T15:57:17.858Z,2.12
2018-03-15T15:59:21.333Z,2.10
2018-03-15T16:01:25.707Z,2.20
2018-03-15T16:03:29.123Z,2.50
2018-03-15T16:05:33.233Z,2.20
2018-03-15T16:07:36.853Z,2.53
2018-03-15T16:09:41.212Z,2.30
2018-03-15T16:11:44.660Z,2.47
2018-03-15T16:13:47.883Z,1.90
2018-03-15T16:15:51.289Z,2.77
2018-03-15T16:17:54.554Z,2.20
2018-03-15T16:19:57.780Z,2.15
2018-03-15T16:22:01.743Z,2.47
2018-03-15T16:24:05.529Z,2.50
2018-03-15T16:26:08.802Z,2.50
2018-03-15T16:28:12.830Z,2.10
2018-03-15T16:30:16.937Z,2.50
2018-03-15T16:32:20.290Z,2.40
2018-03-15T16:34:23.772Z,2.27
2018-03-15T16:36:28.341Z,2.08
2018-03-15T16:38:31.595Z,2.77
2018-03-15T16:40:34.937Z,2.73
2018-03-15T16:42:38.135Z,3.00
2018-03-15T16:44:41.415Z,3.00
2018-03-15T16:46:44.622Z,3.17
2018-03-15T16:48:48.398Z,2.87
2018-03-15T16:50:52.060Z,3.00
2018-03-15T16:52:55.334Z,2.97
2018-03-15T16:54:58.819Z,2.93
2018-03-15T16:57:05.494Z,3.37
2018-03-15T16:59:10.676Z,3.00
2018-03-15T17:01:14.100Z,3.50
2018-03-15T17:03:17.810Z,3.27
2018-03-15T17:05:22.822Z,3.53
2018-03-15T17:07:25.978Z,3.77
2018-03-15T17:09:30.245Z,2.87
2018-03-15T17:11:34.082Z,3.33
2018-03-15T17:13:38.383Z,2.27
2018-03-15T17:15:41.617Z,2.83
2018-03-15T17:17:45.016Z,1.98
2018-03-15T17:19:48.379Z,2.00
2018-03-15T17:21:51.601Z,2.60
2018-03-15T17:23:55.550Z,2.20
2018-03-15T17:25:58.952Z,3.27
2018-03-15T17:28:02.796Z,3.80
2018-03-15T17:30:08.502Z,2.42
2018-03-15T17:32:11.838Z,2.60
2018-03-15T17:34:15.244Z,3.25
2018-03-15T17:36:19.367Z,2.23
2018-03-15T17:38:22.528Z,3.00
2018-03-15T17:40:26.033Z,2.87
2018-03-15T17:42:29.329Z,2.30
2018-03-15T17:44:33.470Z,2.33
2018-03-15T17:46:36.806Z,1.90
2018-03-15T17:48:40.678Z,1.93
2018-03-15T17:50:44.631Z,1.80
2018-03-15T17:52:48.412Z,1.62
2018-03-15T17:54:51.777Z,1.90
2018-03-15T17:56:55.984Z,2.23
2018-03-15T17:58:59.381Z,2.27
2018-03-15T18:01:02.919Z,2.08
2018-03-15T18:03:06.195Z,2.42
2018-03-15T18:05:11.143Z,2.47
2018-03-15T18:07:15.355Z,2.50
2018-03-15T18:09:18.557Z,2.03
2018-03-15T18:11:21.863Z,2.30
2018-03-15T18:13:25.039Z,2.13
2018-03-15T18:15:28.251Z,2.47
2018-03-15T18:17:33.357Z,2.87
2018-03-15T18:19:36.556Z,1.93
2018-03-15T18:21:39.721Z,2.75
2018-03-15T18:23:43.693Z,2.35
2018-03-15T18:25:46.882Z,2.10
2018-03-15T18:27:50.084Z,2.42
2018-03-15T18:29:53.391Z,2.27
2018-03-15T18:31:56.683Z,3.03
2018-03-15T18:34:00.626Z,3.60
2018-03-15T18:36:03.812Z,3.37
2018-03-15T18:38:07.798Z,3.67
2018-03-15T18:40:11.136Z,3.73
2018-03-15T18:42:14.274Z,4.27
2018-03-15T18:44:17.595Z,2.70
2018-03-15T18:46:21.233Z,2.53
2018-03-15T18:48:24.384Z,2.60
2018-03-15T18:50:27.620Z,4.67
2018-03-15T18:52:30.874Z,2.90
2018-03-15T18:54:35.336Z,2.70
2018-03-15T18:56:38.528Z,2.60
2018-03-15T18:58:41.754Z,2.60
2018-03-15T19:00:44.906Z,2.40
2018-03-15T19:02:48.085Z,2.57
2018-03-15T19:04:52.042Z,3.00
2018-03-15T19:06:55.229Z,2.63
2018-03-15T19:08:59.593Z,10.17
2018-03-15T19:11:02.805Z,3.90
2018-03-15T19:13:05.997Z,2.87
2018-03-15T19:15:09.199Z,2.30
2018-03-15T19:17:12.440Z,3.23
2018-03-15T19:19:16.033Z,3.80
2018-03-15T19:21:19.223Z,3.43
2018-03-15T19:23:23.197Z,2.20
2018-03-15T19:25:26.345Z,7.13
2018-03-15T19:27:30.279Z,3.07
2018-03-15T19:29:34.236Z,34.93
2018-03-15T19:31:37.434Z,14.80
2018-03-15T19:33:41.426Z,5.60
2018-03-15T19:35:45.403Z,3.73
2018-03-15T19:37:48.796Z,3.45
2018-03-15T19:39:51.959Z,3.70
2018-03-15T19:41:55.152Z,2.53
2018-03-15T19:43:58.408Z,2.87
2018-03-15T19:46:02.386Z,4.17
2018-03-15T19:48:05.529Z,4.47
2018-03-15T19:50:09.481Z,3.80
2018-03-15T19:52:12.785Z,3.90
2018-03-15T19:54:17.819Z,3.80
2018-03-15T19:56:21.017Z,5.20
2018-03-15T19:58:24.240Z,4.83
2018-03-15T20:00:28.919Z,4.10
2018-03-15T20:02:32.292Z,4.53
2018-03-15T20:04:36.345Z,4.00
2018-03-15T20:06:39.670Z,4.13
2018-03-15T20:08:43.049Z,4.25
2018-03-15T20:10:47.100Z,4.77
2018-03-15T20:12:50.350Z,4.20
2018-03-15T20:14:54.542Z,4.60
2018-03-15T20:16:59.417Z,5.97
2018-03-15T20:19:08.048Z,4.20
2018-03-15T20:21:11.242Z,5.43
2018-03-15T20:23:19.910Z,7.07
2018-03-15T20:25:23.176Z,5.07
2018-03-15T20:27:32.127Z,5.87
2018-03-15T20:29:35.411Z,5.37
2018-03-15T20:31:42.366Z,4.32
2018-03-15T20:33:52.094Z,4.32
2018-03-15T20:35:55.384Z,4.73
2018-03-15T20:38:00.113Z,5.03
2018-03-15T20:40:09.977Z,7.27
2018-03-15T20:42:13.345Z,8.50
2018-03-15T20:44:16.624Z,8.70
2018-03-15T20:49:14.524Z,5.00
2018-03-15T20:51:18.239Z,5.00
2018-03-15T20:53:21.590Z,5.13
2018-03-15T20:55:25.740Z,5.00
2018-03-15T20:57:29.782Z,5.47
2018-03-15T20:59:34.008Z,5.20
2018-03-15T21:01:37.176Z,5.90
2018-03-15T21:03:40.980Z,6.65
2018-03-15T21:05:44.170Z,5.47
2018-03-15T21:07:47.358Z,5.82
2018-03-15T21:09:51.268Z,6.10
2018-03-15T21:11:54.462Z,6.00
2018-03-15T21:13:57.918Z,6.13
2018-03-15T21:16:01.585Z,5.87
2018-03-15T21:18:04.764Z,5.50
2018-03-15T21:20:07.936Z,5.73
2018-03-15T21:22:11.896Z,5.40
2018-03-15T21:24:15.080Z,6.00
2018-03-15T21:26:19.027Z,5.13
2018-03-15T21:28:22.247Z,5.80
2018-03-15T21:30:25.483Z,6.50
2018-03-15T21:32:28.840Z,5.35
2018-03-15T21:34:32.828Z,5.63
2018-03-15T21:36:35.986Z,5.70
2018-03-15T21:38:39.170Z,5.35
2018-03-15T21:40:49.259Z,6.30
2018-03-15T21:42:52.432Z,6.30
2018-03-15T21:44:55.614Z,6.97
2018-03-15T21:46:58.847Z,7.78
2018-03-15T21:49:02.053Z,7.63
2018-03-15T21:51:05.251Z,6.57
2018-03-15T21:53:08.430Z,6.96
2018-03-15T21:55:11.581Z,6.78
2018-03-15T21:57:14.762Z,7.00
2018-03-15T21:59:17.923Z,6.90
2018-03-15T22:01:21.874Z,8.00
2018-03-15T22:03:25.133Z,7.47
2018-03-15T22:05:28.289Z,6.87
2018-03-15T22:07:31.684Z,6.93
2018-03-15T22:09:34.833Z,7.25
2018-03-15T22:11:37.988Z,7.60
2018-03-15T22:13:41.940Z,6.95
2018-03-15T22:15:45.084Z,7.47
2018-03-15T22:17:48.257Z,6.80
2018-03-15T22:19:51.437Z,7.80
2018-03-15T22:21:55.368Z,7.77
2018-03-15T22:23:59.333Z,8.07
2018-03-15T22:26:02.560Z,8.18
2018-03-15T22:28:05.721Z,7.67
2018-03-15T22:30:08.871Z,7.67
2018-03-15T22:32:12.331Z,7.30
2018-03-15T22:34:16.305Z,7.27
2018-03-15T22:36:19.454Z,7.40
2018-03-15T22:38:22.652Z,7.47
2018-03-15T22:40:26.033Z,7.82
2018-03-15T22:42:29.183Z,7.83
2018-03-15T22:44:33.196Z,8.05
2018-03-15T22:46:36.351Z,7.97
2018-03-15T22:48:39.504Z,8.17
2018-03-15T22:50:42.693Z,8.77
2018-03-15T22:52:46.704Z,7.87
2018-03-15T22:54:49.847Z,8.60
2018-03-15T22:56:53.303Z,8.80
2018-03-15T22:58:57.208Z,8.53
2018-03-15T23:01:01.160Z,9.03
2018-03-15T23:03:04.582Z,8.67
2018-03-15T23:05:07.728Z,7.27
2018-03-15T23:07:10.882Z,8.80
2018-03-15T23:09:14.058Z,8.37
2018-03-15T23:11:17.214Z,10.07
2018-03-15T23:13:20.361Z,9.17
2018-03-15T23:15:23.540Z,9.23
2018-03-15T23:17:27.808Z,8.77
2018-03-15T23:19:31.160Z,10.13
2018-03-15T23:21:34.309Z,9.03
2018-03-15T23:23:37.462Z,10.23
2018-03-15T23:25:41.617Z,9.50
2018-03-15T23:27:44.765Z,9.43
2018-03-15T23:29:48.650Z,9.38
2018-03-15T23:31:52.038Z,9.00
2018-03-15T23:33:55.944Z,9.10
2018-03-15T23:36:00.633Z,9.07
2018-03-15T23:38:03.776Z,9.93
2018-03-15T23:40:06.920Z,9.40
2018-03-15T23:42:10.888Z,9.27
2018-03-15T23:44:14.046Z,10.07
2018-03-15T23:46:17.956Z,9.40
2018-03-15T23:48:21.136Z,9.30
2018-03-15T23:50:24.278Z,9.43
2018-03-15T23:52:27.452Z,10.23
2018-03-15T23:54:30.591Z,9.73
2018-03-15T23:56:33.733Z,9.67
2018-03-15T23:58:36.925Z,9.37
